Airfield :
LOGIN :

Register | Disclaimer

   EN    FR    IT 

 










Legend :    VFR   Marginal VFR   IFR   Intensive IFR   Very Intensive IFR
Visi :
Ceiling :
>= 8 km
>= 3000ft
5 to 8 km
1000 to 3000 ft
1500m to 5 km
500 to 1000 ft
800 to 1500m
200 to 500 ft
< 800m
< 200 ft
Symbols :   Thunderstorms  Fog  Heavy snow  Heavy precipitations  Wind > 20 kt
SIGMETs :     Misc.  Thunderstorms  Icing  Turbulence  Mountain Waves  Volcanic Ashes







- Airport Elevation : 284 ft


EGUW - RAF Wattisham

CURRENT METAR :
  • 211650Z 21011KT CAVOK 17/08 Q1014 BLU TEMPO -RA BKN020 WHT

EXPIRED METARs :
  • 211550Z 21013KT CAVOK 18/07 Q1014 BLU TEMPO SCT020 WHT
  • 211450Z 21014KT CAVOK 18/07 Q1014 BLU NOSIG

TAF TAF EGUW
Valid from the 21 at 15:00 until the 22 at 00:00 UTC


211330Z 2115/2124 22015G25KT 9999 SCT035
BECMG 2116/2118 18010KT -RA BKN020
TEMPO 2117/2120 SCT010
No reported NOTAMs for that airfield.



MET'MAP, your aeronautical weather chart ! - Copyright ORBIFLY December 2007 - Disclaimer

ORBIFLY MET'MAP TEAM :

Programming & Development : Alexandra Zaïnal
Concept & Development : Baudouin d'Aumeries
Co-Development & Prog : Marc-Olivier Méhu
Technical & hardware support : Manuel Goepfert

Contact : metmap@orbifly.com




SOURCES & CREDITS :

   NOAA